createdAt,value
2022-10-23T00:01:47.333Z,13.41
2022-10-23T00:04:21.025Z,13.44
2022-10-23T00:06:50.035Z,13.38
2022-10-23T00:09:24.310Z,13.38
2022-10-23T00:11:52.954Z,13.41
2022-10-23T00:14:24.384Z,13.41
2022-10-23T00:16:51.851Z,13.22
2022-10-23T00:19:19.213Z,13.33
2022-10-23T00:21:46.371Z,13.21
2022-10-23T00:24:13.889Z,12.94
2022-10-23T00:26:41.942Z,12.97
2022-10-23T00:29:11.901Z,12.91
2022-10-23T00:31:39.597Z,12.94
2022-10-23T00:34:08.446Z,12.94
2022-10-23T00:36:37.439Z,12.96
2022-10-23T00:39:05.798Z,12.94
2022-10-23T00:41:33.427Z,12.93
2022-10-23T00:44:30.781Z,12.96
2022-10-23T00:46:59.389Z,12.92
2022-10-23T00:49:28.149Z,12.80
2022-10-23T00:52:06.950Z,12.81
2022-10-23T00:54:40.567Z,12.85
2022-10-23T00:57:15.290Z,12.89
2022-10-23T00:59:43.210Z,12.84
2022-10-23T01:02:10.690Z,12.85
2022-10-23T01:04:38.277Z,12.88
2022-10-23T01:07:39.089Z,12.91
2022-10-23T01:10:38.966Z,12.88
2022-10-23T01:13:28.952Z,12.84
2022-10-23T01:16:23.706Z,12.74
2022-10-23T01:19:04.010Z,12.79
2022-10-23T01:22:37.773Z,12.75
2022-10-23T01:26:11.387Z,12.76
2022-10-23T01:29:19.747Z,12.70
2022-10-23T01:32:17.779Z,12.69
2022-10-23T01:35:02.780Z,12.70
2022-10-23T01:37:43.483Z,12.74
2022-10-23T01:40:26.973Z,12.74
2022-10-23T01:43:04.915Z,12.65
2022-10-23T01:45:42.580Z,12.59
2022-10-23T01:48:21.932Z,12.64
2022-10-23T01:50:53.590Z,12.67
2022-10-23T01:53:22.621Z,12.69
2022-10-23T01:55:51.500Z,12.70
2022-10-23T01:58:26.505Z,12.58
2022-10-23T02:01:01.796Z,12.58
2022-10-23T02:03:35.389Z,12.57
2022-10-23T02:06:03.295Z,12.53
2022-10-23T02:08:31.589Z,12.42
2022-10-23T02:11:21.696Z,12.30
2022-10-23T02:14:23.074Z,12.23
2022-10-23T02:16:54.982Z,12.29
2022-10-23T02:19:42.901Z,12.16
2022-10-23T02:22:37.662Z,12.23
2022-10-23T02:25:14.849Z,12.36
2022-10-23T02:27:56.230Z,12.22
2022-10-23T02:30:30.238Z,12.27
2022-10-23T02:33:12.297Z,12.25
2022-10-23T02:35:40.170Z,12.33
2022-10-23T02:38:50.725Z,12.34
2022-10-23T02:42:14.239Z,12.39
2022-10-23T02:45:17.976Z,12.23
2022-10-23T02:48:14.950Z,12.02
2022-10-23T02:51:14.403Z,12.05
2022-10-23T02:53:53.159Z,11.97
2022-10-23T02:56:47.839Z,11.88
2022-10-23T02:59:45.673Z,12.04
2022-10-23T03:02:25.809Z,12.17
2022-10-23T03:04:58.197Z,12.19
2022-10-23T03:07:27.012Z,12.29
2022-10-23T03:10:02.393Z,12.33
2022-10-23T03:12:31.085Z,12.34
2022-10-23T03:14:59.623Z,12.38
2022-10-23T03:17:27.101Z,12.27
2022-10-23T03:19:57.744Z,12.19
2022-10-23T03:22:25.322Z,12.26
2022-10-23T03:24:52.455Z,12.22
2022-10-23T03:27:19.668Z,12.24
2022-10-23T03:29:46.859Z,12.29
2022-10-23T03:32:15.478Z,12.34
2022-10-23T03:34:42.894Z,12.27
2022-10-23T03:37:10.362Z,12.36
2022-10-23T03:39:37.973Z,12.42
2022-10-23T03:42:05.197Z,12.45
2022-10-23T03:44:34.006Z,12.41
2022-10-23T03:47:01.428Z,12.41
2022-10-23T03:49:28.569Z,12.40
2022-10-23T03:52:03.148Z,12.26
2022-10-23T03:54:30.523Z,12.42
2022-10-23T03:56:58.117Z,12.48
2022-10-23T03:59:27.541Z,12.51
2022-10-23T04:01:55.165Z,12.57
2022-10-23T04:04:25.506Z,12.56
2022-10-23T04:06:52.556Z,12.56
2022-10-23T04:09:20.687Z,12.62
2022-10-23T04:11:47.845Z,12.53
2022-10-23T04:14:15.067Z,12.55
2022-10-23T04:16:42.463Z,12.54
2022-10-23T04:19:09.752Z,12.47
2022-10-23T04:21:37.228Z,12.46
2022-10-23T04:24:05.340Z,12.26
2022-10-23T04:26:33.046Z,12.35
2022-10-23T04:29:00.330Z,12.45
2022-10-23T04:31:52.421Z,12.48
2022-10-23T04:34:19.946Z,12.51
2022-10-23T04:37:12.323Z,12.52
2022-10-23T04:39:39.619Z,12.48
2022-10-23T04:42:06.723Z,12.55
2022-10-23T04:44:34.090Z,12.59
2022-10-23T04:47:01.198Z,12.65
2022-10-23T04:49:28.578Z,12.62
2022-10-23T04:52:17.572Z,12.51
2022-10-23T04:55:21.049Z,12.56
2022-10-23T04:58:07.167Z,12.48
2022-10-23T05:00:34.339Z,12.55
2022-10-23T05:03:03.859Z,12.57
2022-10-23T05:05:36.624Z,12.67
2022-10-23T05:08:26.740Z,12.71
2022-10-23T05:11:19.975Z,12.71
2022-10-23T05:13:49.555Z,12.77
2022-10-23T05:16:37.077Z,12.73
2022-10-23T05:19:09.191Z,12.61
2022-10-23T05:21:41.062Z,12.56
2022-10-23T05:24:11.066Z,12.53
2022-10-23T05:26:39.916Z,12.64
2022-10-23T05:29:08.572Z,12.59
2022-10-23T05:31:36.648Z,12.53
2022-10-23T05:34:15.845Z,12.58
2022-10-23T05:36:45.754Z,12.45
2022-10-23T05:39:38.553Z,12.14
2022-10-23T05:42:10.886Z,12.26
2022-10-23T05:44:39.334Z,12.44
2022-10-23T05:47:18.617Z,12.23
2022-10-23T05:50:21.156Z,12.37
2022-10-23T05:53:07.068Z,12.51
2022-10-23T05:55:49.150Z,12.28
2022-10-23T05:58:37.049Z,12.19
2022-10-23T06:01:15.190Z,12.26
2022-10-23T06:04:00.657Z,12.40
2022-10-23T06:06:48.304Z,12.22
2022-10-23T06:09:17.093Z,12.20
2022-10-23T06:11:47.265Z,12.20
2022-10-23T06:14:19.639Z,12.21
2022-10-23T06:16:49.553Z,12.27
2022-10-23T06:19:17.000Z,12.48
2022-10-23T06:21:44.773Z,12.49
2022-10-23T06:24:16.074Z,12.21
2022-10-23T06:26:52.367Z,12.25
2022-10-23T06:29:32.631Z,12.33
2022-10-23T06:32:01.050Z,12.18
2022-10-23T06:34:28.277Z,12.43
2022-10-23T06:36:55.980Z,12.64
2022-10-23T06:39:52.394Z,12.60
2022-10-23T06:42:25.531Z,12.68
2022-10-23T06:44:56.714Z,12.79
2022-10-23T06:47:53.421Z,12.92
2022-10-23T06:50:41.338Z,13.03
2022-10-23T06:53:13.304Z,12.96
2022-10-23T06:55:50.044Z,13.00
2022-10-23T06:58:20.824Z,13.17
2022-10-23T07:01:16.351Z,13.36
2022-10-23T07:03:45.019Z,13.30
2022-10-23T07:06:13.377Z,13.19
2022-10-23T07:08:41.166Z,13.13
2022-10-23T07:11:28.267Z,13.40
2022-10-23T07:13:57.296Z,13.39
2022-10-23T07:16:24.829Z,13.62
2022-10-23T07:18:59.752Z,13.69
2022-10-23T07:21:34.980Z,13.56
2022-10-23T07:24:23.476Z,13.75
2022-10-23T07:26:51.677Z,13.83
2022-10-23T07:29:19.910Z,13.96
2022-10-23T07:31:48.373Z,13.95
2022-10-23T07:34:36.813Z,13.89
2022-10-23T07:37:39.803Z,14.20
2022-10-23T07:40:09.053Z,14.42
2022-10-23T07:42:43.281Z,14.52
2022-10-23T07:45:12.505Z,14.58
2022-10-23T07:47:43.529Z,14.69
2022-10-23T07:50:13.105Z,14.82
2022-10-23T07:52:40.214Z,14.89
2022-10-23T07:55:11.424Z,15.10
2022-10-23T07:57:45.337Z,15.07
2022-10-23T08:03:07.225Z,14.74
2022-10-23T08:05:34.704Z,15.13
2022-10-23T08:08:04.331Z,15.32
2022-10-23T08:10:32.102Z,15.27
2022-10-23T08:13:00.331Z,15.31
2022-10-23T08:15:50.701Z,13.96
2022-10-23T08:18:36.186Z,13.63
2022-10-23T08:21:04.906Z,14.42
2022-10-23T08:23:33.848Z,14.14
2022-10-23T08:26:05.542Z,14.17
2022-10-23T08:28:33.572Z,14.59
2022-10-23T08:31:25.717Z,15.09
2022-10-23T08:34:16.307Z,15.05
2022-10-23T08:36:45.886Z,15.64
2022-10-23T08:39:20.297Z,16.11
2022-10-23T08:42:25.831Z,15.89
2022-10-23T08:45:44.052Z,15.98
2022-10-23T08:48:41.788Z,15.93
2022-10-23T08:51:50.280Z,15.94
2022-10-23T08:54:49.020Z,16.10
2022-10-23T08:57:18.650Z,16.01
2022-10-23T09:00:01.443Z,15.60
2022-10-23T09:02:41.282Z,15.36
2022-10-23T09:05:32.872Z,15.90
2022-10-23T09:08:33.973Z,15.78
2022-10-23T09:12:00.839Z,16.11
2022-10-23T09:15:28.231Z,16.35
2022-10-23T09:18:04.638Z,16.72
2022-10-23T09:20:36.430Z,17.05
2022-10-23T09:23:19.847Z,17.41
2022-10-23T09:25:56.755Z,17.63
2022-10-23T09:28:51.654Z,17.66
2022-10-23T09:31:19.894Z,18.02
2022-10-23T09:34:21.506Z,18.24
2022-10-23T09:37:30.372Z,18.68
2022-10-23T09:40:25.720Z,19.00
2022-10-23T09:43:03.988Z,19.11
2022-10-23T09:45:35.874Z,19.42
2022-10-23T09:48:14.505Z,19.39
2022-10-23T09:50:59.520Z,19.82
2022-10-23T09:53:39.532Z,20.08
2022-10-23T09:56:34.743Z,20.31
2022-10-23T09:59:31.169Z,20.21
2022-10-23T10:02:05.439Z,20.44
2022-10-23T10:04:53.153Z,20.36
2022-10-23T10:07:31.160Z,20.35
2022-10-23T10:10:01.420Z,20.66
2022-10-23T10:12:57.183Z,20.06
2022-10-23T10:15:56.415Z,20.47
2022-10-23T10:18:37.037Z,20.55
2022-10-23T10:21:43.178Z,21.30
2022-10-23T10:24:46.704Z,21.53
2022-10-23T10:28:23.831Z,21.69
2022-10-23T10:31:16.985Z,22.15
2022-10-23T10:34:11.491Z,22.37
2022-10-23T10:37:00.697Z,22.55
2022-10-23T10:40:08.205Z,22.54
2022-10-23T10:43:07.502Z,22.56
2022-10-23T10:45:47.519Z,22.62
2022-10-23T10:48:44.720Z,23.09
2022-10-23T10:51:49.110Z,23.46
2022-10-23T10:54:54.491Z,23.52
2022-10-23T10:57:38.510Z,23.85
2022-10-23T11:00:17.313Z,24.14
2022-10-23T11:02:53.662Z,24.14
2022-10-23T11:05:41.990Z,23.88
2022-10-23T11:08:27.800Z,24.42
2022-10-23T11:11:08.152Z,24.91
2022-10-23T11:13:43.637Z,24.71
2022-10-23T11:16:29.444Z,24.94
2022-10-23T11:19:27.603Z,25.22
2022-10-23T11:22:20.731Z,24.97
2022-10-23T11:25:35.021Z,24.68
2022-10-23T11:28:38.835Z,24.80
2022-10-23T11:31:25.438Z,24.97
2022-10-23T11:35:00.593Z,24.65
2022-10-23T11:37:28.279Z,25.03
2022-10-23T11:40:07.878Z,24.50
2022-10-23T11:42:55.549Z,24.67
2022-10-23T11:45:33.854Z,24.99
2022-10-23T11:48:40.830Z,25.11
2022-10-23T11:54:15.121Z,24.95
2022-10-23T11:57:10.613Z,25.24
2022-10-23T11:59:50.288Z,25.57
2022-10-23T12:02:38.914Z,25.09
2022-10-23T12:05:25.520Z,25.92
2022-10-23T12:08:02.975Z,26.42
2022-10-23T12:10:36.158Z,26.53
2022-10-23T12:13:28.889Z,26.73
2022-10-23T12:15:58.584Z,27.08
2022-10-23T12:18:28.569Z,27.01
2022-10-23T12:21:01.111Z,27.09
2022-10-23T12:23:50.345Z,27.36
2022-10-23T12:27:06.928Z,26.86
2022-10-23T12:30:22.388Z,26.76
2022-10-23T12:33:24.991Z,27.00
2022-10-23T12:36:44.970Z,27.49
2022-10-23T12:39:36.460Z,27.51
2022-10-23T12:42:06.659Z,27.42
2022-10-23T12:44:33.848Z,27.44
2022-10-23T12:47:29.140Z,27.71
2022-10-23T12:49:56.652Z,28.21
2022-10-23T12:52:26.939Z,28.52
2022-10-23T12:54:54.057Z,29.09
2022-10-23T12:57:28.323Z,29.37
2022-10-23T13:00:10.466Z,29.61
2022-10-23T13:02:37.775Z,30.83
2022-10-23T13:05:18.102Z,30.88
2022-10-23T13:07:48.291Z,32.40
2022-10-23T13:10:22.808Z,33.30
2022-10-23T13:13:06.905Z,33.72
2022-10-23T13:15:45.915Z,34.25
2022-10-23T13:18:15.766Z,34.69
2022-10-23T13:20:53.317Z,35.67
2022-10-23T13:23:35.543Z,35.20
2022-10-23T13:26:07.149Z,35.38
2022-10-23T13:28:45.383Z,35.31
2022-10-23T13:31:12.533Z,35.87
2022-10-23T13:33:44.519Z,35.28
2022-10-23T13:36:14.239Z,33.98
2022-10-23T13:39:01.415Z,32.95
2022-10-23T13:42:11.958Z,32.72
2022-10-23T13:44:40.093Z,32.92
2022-10-23T13:47:15.753Z,32.27
2022-10-23T13:49:43.104Z,31.98
2022-10-23T13:52:14.788Z,31.54
2022-10-23T13:54:43.423Z,31.06
2022-10-23T13:57:15.551Z,30.34
2022-10-23T13:59:42.850Z,29.69
2022-10-23T14:02:28.218Z,29.07
2022-10-23T14:04:55.452Z,29.00
2022-10-23T14:07:22.909Z,28.42
2022-10-23T14:09:50.712Z,28.20
2022-10-23T14:12:18.230Z,27.92
2022-10-23T14:14:45.606Z,27.36
2022-10-23T14:17:13.283Z,27.30
2022-10-23T14:19:40.457Z,27.23
2022-10-23T14:22:07.656Z,27.19
2022-10-23T14:24:35.605Z,27.06
2022-10-23T14:27:03.243Z,26.95
2022-10-23T14:29:30.927Z,26.69
2022-10-23T14:31:58.338Z,26.59
2022-10-23T14:34:25.606Z,26.28
2022-10-23T14:37:08.067Z,26.31
2022-10-23T14:39:36.513Z,26.24
2022-10-23T14:42:04.116Z,26.01
2022-10-23T14:44:31.306Z,25.98
2022-10-23T14:46:59.505Z,25.63
2022-10-23T14:49:26.608Z,25.67
2022-10-23T14:51:53.798Z,25.68
2022-10-23T14:54:20.963Z,25.59
2022-10-23T14:56:48.563Z,25.53
2022-10-23T14:59:15.790Z,25.46
2022-10-23T15:01:48.232Z,25.33
2022-10-23T15:04:16.414Z,25.28
2022-10-23T15:06:47.178Z,25.33
2022-10-23T15:09:15.377Z,25.38
2022-10-23T15:11:42.739Z,25.61
2022-10-23T15:14:10.197Z,25.76
2022-10-23T15:16:41.385Z,25.79
2022-10-23T15:19:18.436Z,26.15
2022-10-23T15:21:48.288Z,26.31
2022-10-23T15:24:17.601Z,26.36
2022-10-23T15:26:45.464Z,25.85
2022-10-23T15:29:14.622Z,25.12
2022-10-23T15:31:52.486Z,25.46
2022-10-23T15:34:28.288Z,25.13
2022-10-23T15:36:57.673Z,25.08
2022-10-23T15:39:33.869Z,24.86
2022-10-23T15:42:05.286Z,24.23
2022-10-23T15:44:34.314Z,24.46
2022-10-23T15:47:01.505Z,24.26
2022-10-23T15:49:29.630Z,24.24
2022-10-23T15:51:57.626Z,24.30
2022-10-23T15:54:28.097Z,24.21
2022-10-23T15:56:58.338Z,23.94
2022-10-23T15:59:27.285Z,23.72
2022-10-23T16:01:55.597Z,22.72
2022-10-23T16:04:24.082Z,22.69
2022-10-23T16:06:51.911Z,22.66
2022-10-23T16:09:19.896Z,22.39
2022-10-23T16:11:47.331Z,22.39
2022-10-23T16:14:17.409Z,22.26
2022-10-23T16:16:44.911Z,21.86
2022-10-23T16:19:13.311Z,22.12
2022-10-23T16:21:41.607Z,22.14
2022-10-23T16:24:10.093Z,22.11
2022-10-23T16:26:39.804Z,22.18
2022-10-23T16:29:09.340Z,22.18
2022-10-23T16:31:37.267Z,22.10
2022-10-23T16:34:06.015Z,21.93
2022-10-23T16:36:34.361Z,21.83
2022-10-23T16:39:19.661Z,21.90
2022-10-23T16:42:06.591Z,21.92
2022-10-23T16:44:47.288Z,21.94
2022-10-23T16:47:14.397Z,21.90
2022-10-23T16:49:41.677Z,21.80
2022-10-23T16:52:09.555Z,21.70
2022-10-23T16:54:36.914Z,21.49
2022-10-23T16:57:04.177Z,21.28
2022-10-23T16:59:31.262Z,21.21
2022-10-23T17:01:58.588Z,21.30
2022-10-23T17:04:25.879Z,21.41
2022-10-23T17:06:56.541Z,21.33
2022-10-23T17:09:26.474Z,21.43
2022-10-23T17:11:54.081Z,21.37
2022-10-23T17:14:24.911Z,21.46
2022-10-23T17:16:53.348Z,21.52
2022-10-23T17:19:43.865Z,21.57
2022-10-23T17:22:13.295Z,21.54
2022-10-23T17:24:45.137Z,21.51
2022-10-23T17:27:15.039Z,21.53
2022-10-23T17:29:42.727Z,21.52
2022-10-23T17:32:10.457Z,21.49
2022-10-23T17:34:37.939Z,21.43
2022-10-23T17:37:05.594Z,21.42
2022-10-23T17:39:33.182Z,21.33
2022-10-23T17:42:00.498Z,21.11
2022-10-23T17:44:29.048Z,21.15
2022-10-23T17:46:56.264Z,21.17
2022-10-23T17:49:25.042Z,21.12
2022-10-23T17:51:55.747Z,21.03
2022-10-23T17:54:26.578Z,20.54
2022-10-23T17:56:54.343Z,20.46
2022-10-23T17:59:22.645Z,20.49
2022-10-23T18:01:50.744Z,20.58
2022-10-23T18:04:20.686Z,20.62
2022-10-23T18:06:53.611Z,20.44
2022-10-23T18:09:24.266Z,20.58
2022-10-23T18:11:52.644Z,20.45
2022-10-23T18:14:22.198Z,19.63
2022-10-23T18:16:50.751Z,19.93
2022-10-23T18:19:19.188Z,20.13
2022-10-23T18:21:48.064Z,20.20
2022-10-23T18:24:16.169Z,20.12
2022-10-23T18:26:44.767Z,20.02
2022-10-23T18:29:15.417Z,20.01
2022-10-23T18:31:44.366Z,20.24
2022-10-23T18:34:24.567Z,20.40
2022-10-23T18:36:55.348Z,20.41
2022-10-23T18:39:25.523Z,20.31
2022-10-23T18:41:57.830Z,20.44
2022-10-23T18:44:29.176Z,20.41
2022-10-23T18:46:59.619Z,20.44
2022-10-23T18:49:27.939Z,20.43
2022-10-23T18:51:55.505Z,20.19
2022-10-23T18:54:22.709Z,20.31
2022-10-23T18:56:50.397Z,20.40
2022-10-23T18:59:21.474Z,20.29
2022-10-23T19:01:49.927Z,19.64
2022-10-23T19:04:18.321Z,19.67
2022-10-23T19:06:48.661Z,19.89
2022-10-23T19:09:16.846Z,19.96
2022-10-23T19:11:45.467Z,20.08
2022-10-23T19:14:13.188Z,20.18
2022-10-23T19:17:05.367Z,20.20
2022-10-23T19:19:42.866Z,20.14
2022-10-23T19:22:14.837Z,20.01
2022-10-23T19:25:10.210Z,19.89
2022-10-23T19:27:40.179Z,20.00
2022-10-23T19:30:13.452Z,19.99
2022-10-23T19:32:43.973Z,19.82
2022-10-23T19:35:15.048Z,19.26
2022-10-23T19:37:42.308Z,19.42
2022-10-23T19:40:11.950Z,19.66
2022-10-23T19:42:42.087Z,19.90
2022-10-23T19:45:15.168Z,20.06
2022-10-23T19:47:43.251Z,20.02
2022-10-23T19:50:10.939Z,20.02
2022-10-23T19:52:38.520Z,19.98
2022-10-23T19:55:11.160Z,19.93
2022-10-23T19:57:38.368Z,20.02
2022-10-23T20:00:08.412Z,19.94
2022-10-23T20:02:38.418Z,19.93
2022-10-23T20:05:08.283Z,19.85
2022-10-23T20:07:37.017Z,19.85
2022-10-23T20:10:08.815Z,19.83
2022-10-23T20:12:35.883Z,19.35
2022-10-23T20:15:02.986Z,19.38
2022-10-23T20:17:30.169Z,19.56
2022-10-23T20:19:57.327Z,19.67
2022-10-23T20:22:24.532Z,19.82
2022-10-23T20:24:51.892Z,19.82
2022-10-23T20:27:19.223Z,19.97
2022-10-23T20:29:46.531Z,19.99
2022-10-23T20:32:14.722Z,20.24
2022-10-23T20:34:42.954Z,20.41
2022-10-23T20:37:10.298Z,20.56
2022-10-23T20:39:39.632Z,20.56
2022-10-23T20:42:09.241Z,20.79
2022-10-23T20:44:36.535Z,20.88
2022-10-23T20:47:04.280Z,20.98
2022-10-23T20:49:31.435Z,21.02
2022-10-23T20:51:58.544Z,21.19
2022-10-23T20:54:28.575Z,21.25
2022-10-23T20:56:57.065Z,21.18
2022-10-23T20:59:25.341Z,21.36
2022-10-23T21:01:55.132Z,21.18
2022-10-23T21:04:27.594Z,21.23
2022-10-23T21:07:09.446Z,21.28
2022-10-23T21:09:38.086Z,21.47
2022-10-23T21:12:06.822Z,21.34
2022-10-23T21:14:35.652Z,21.40
2022-10-23T21:17:03.886Z,21.43
2022-10-23T21:19:31.298Z,21.77
2022-10-23T21:21:58.533Z,21.54
2022-10-23T21:24:25.815Z,21.66
2022-10-23T21:26:53.065Z,21.51
2022-10-23T21:29:20.854Z,21.71
2022-10-23T21:32:01.442Z,21.56
2022-10-23T21:34:29.312Z,21.85
2022-10-23T21:37:13.819Z,21.79
2022-10-23T21:39:44.270Z,21.95
2022-10-23T21:42:14.372Z,21.95
2022-10-23T21:44:41.735Z,22.08
2022-10-23T21:47:09.062Z,22.12
2022-10-23T21:49:36.267Z,21.94
2022-10-23T21:54:31.708Z,21.99
2022-10-23T21:56:59.322Z,22.00
2022-10-23T21:59:30.134Z,21.83
2022-10-23T22:01:59.115Z,21.91
2022-10-23T22:04:26.458Z,21.83
2022-10-23T22:06:53.605Z,21.69
2022-10-23T22:09:22.313Z,21.79
2022-10-23T22:11:52.792Z,21.77
2022-10-23T22:14:21.245Z,21.71
2022-10-23T22:16:49.344Z,21.54
2022-10-23T22:19:26.845Z,21.69
2022-10-23T22:21:54.313Z,21.43
2022-10-23T22:24:21.605Z,21.63
2022-10-23T22:26:54.848Z,21.50
2022-10-23T22:29:27.568Z,21.64
2022-10-23T22:31:56.216Z,21.73
2022-10-23T22:37:17.119Z,21.55
2022-10-23T22:39:44.790Z,21.36
2022-10-23T22:42:12.182Z,21.53
2022-10-23T22:44:39.293Z,21.68
2022-10-23T22:47:06.678Z,21.71
2022-10-23T22:49:33.954Z,21.86
2022-10-23T22:52:01.052Z,22.01
2022-10-23T22:54:30.394Z,21.28
2022-10-23T22:56:58.330Z,21.35
2022-10-23T22:59:25.768Z,21.51
2022-10-23T23:01:52.904Z,21.63
2022-10-23T23:07:12.009Z,21.59
2022-10-23T23:09:44.660Z,21.88
2022-10-23T23:12:14.672Z,21.93
2022-10-23T23:14:43.022Z,21.49
2022-10-23T23:17:12.938Z,21.76
2022-10-23T23:19:40.580Z,21.76
2022-10-23T23:22:08.083Z,21.55
2022-10-23T23:24:35.281Z,21.59
2022-10-23T23:27:02.733Z,21.24
2022-10-23T23:29:30.205Z,20.95
2022-10-23T23:31:57.864Z,21.17
2022-10-23T23:34:25.082Z,21.10
2022-10-23T23:36:54.706Z,21.07
2022-10-23T23:39:47.230Z,20.58
2022-10-23T23:42:14.635Z,20.57
2022-10-23T23:44:50.251Z,20.58
2022-10-23T23:47:30.086Z,20.69
2022-10-23T23:49:57.179Z,20.72
2022-10-23T23:52:24.381Z,20.71
2022-10-23T23:54:51.647Z,20.73
2022-10-23T23:57:19.076Z,20.66
2022-10-23T23:59:46.783Z,20.51
